CPA884 VHHH-KLAX
Flight info
| Callsign | CPA884 |
|---|---|
| Flight time | N/A |
| Altitude | 29000 |
| Route | DALOL V631 ENVAR M750 LEKOS R583 BORDO Y74 AZAMA Y57 TAMAK V73 HIDEK/N0507F310 V73 DOVAG DCT UKATA DCT 34N150E 37N160E 41N170E/N0490F330 44N180E 45N170W 44N160W/N0488F350 43N150W 42N140W 40N130W DCT FATMO DCT PAINT DCT PIRAT DCT BURGL IRNMN2 |
| Aircraft | B77W/H-SDE1E2E3FGHIJ2J3J4J5M1RWXY/LB1D1 |
Departure
| Time | 2026-05-06 07:09 |
|---|---|
| Airport | Hong Kong International Airport (VHHH) |
Arrival
| Time | N/A |
|---|---|
| Airport | Los Angeles International Airport (KLAX) |
| Time | Latitude | Longitude | Altitude | Speed | Heading |
|---|---|---|---|---|---|
| 2026-05-06 06:43 | 22.31396 | 113.92792 | 42 ft | 0 kts | 161° |
| 2026-05-06 06:57 | 22.31398 | 113.92791 | 41 ft | 2 kts | 161° |
| 2026-05-06 06:57 | 22.31415 | 113.92784 | 40 ft | 3 kts | 160° |
| 2026-05-06 06:57 | 22.31435 | 113.92779 | 40 ft | 3 kts | 178° |
| 2026-05-06 06:57 | 22.31454 | 113.92780 | 39 ft | 3 kts | 195° |
| 2026-05-06 06:58 | 22.31473 | 113.92788 | 37 ft | 3 kts | 212° |
| 2026-05-06 06:58 | 22.31488 | 113.92801 | 40 ft | 3 kts | 230° |
| 2026-05-06 06:58 | 22.31499 | 113.92819 | 38 ft | 3 kts | 247° |
| 2026-05-06 06:58 | 22.31505 | 113.92837 | 38 ft | 3 kts | 250° |
| 2026-05-06 06:59 | 22.31507 | 113.92843 | 39 ft | 0 kts | 250° |
| 2026-05-06 07:03 | 22.31507 | 113.92841 | 41 ft | 2 kts | 250° |
| 2026-05-06 07:03 | 22.31497 | 113.92764 | 41 ft | 20 kts | 280° |
| 2026-05-06 07:03 | 22.31566 | 113.92599 | 41 ft | 25 kts | 295° |
| 2026-05-06 07:03 | 22.31640 | 113.92430 | 41 ft | 22 kts | 292° |
| 2026-05-06 07:04 | 22.31621 | 113.92287 | 41 ft | 21 kts | 248° |
| 2026-05-06 07:04 | 22.31561 | 113.92106 | 41 ft | 30 kts | 252° |
| 2026-05-06 07:04 | 22.31481 | 113.91855 | 41 ft | 40 kts | 251° |
| 2026-05-06 07:04 | 22.31382 | 113.91548 | 42 ft | 48 kts | 251° |
| 2026-05-06 07:05 | 22.31263 | 113.91180 | 42 ft | 55 kts | 251° |
| 2026-05-06 07:05 | 22.31129 | 113.90766 | 42 ft | 62 kts | 251° |
| 2026-05-06 07:05 | 22.30988 | 113.90327 | 41 ft | 60 kts | 251° |
| 2026-05-06 07:05 | 22.30873 | 113.89976 | 41 ft | 27 kts | 252° |
| 2026-05-06 07:06 | 22.30858 | 113.89850 | 41 ft | 13 kts | 297° |
| 2026-05-06 07:06 | 22.30917 | 113.89816 | 41 ft | 9 kts | 341° |
| 2026-05-06 07:06 | 22.30972 | 113.89797 | 41 ft | 8 kts | 344° |
| 2026-05-06 07:06 | 22.31027 | 113.89777 | 41 ft | 8 kts | 339° |
| 2026-05-06 07:07 | 22.31081 | 113.89779 | 41 ft | 8 kts | 38° |
| 2026-05-06 07:07 | 22.31101 | 113.89825 | 41 ft | 0 kts | 69° |
| 2026-05-06 07:08 | 22.31131 | 113.89911 | 41 ft | 42 kts | 69° |
| 2026-05-06 07:08 | 22.31307 | 113.90457 | 39 ft | 110 kts | 71° |
| 2026-05-06 07:08 | 22.31626 | 113.91446 | 44 ft | 168 kts | 71° |
| 2026-05-06 07:09 | 22.32052 | 113.92805 | 90 ft | 204 kts | 71° |
| 2026-05-06 07:09 | 22.32508 | 113.94239 | 589 ft | 202 kts | 73° |
| 2026-05-06 07:09 | 22.32977 | 113.95699 | 1002 ft | 207 kts | 72° |
| 2026-05-06 07:09 | 22.33445 | 113.97190 | 1491 ft | 211 kts | 77° |
| 2026-05-06 07:10 | 22.33732 | 113.98774 | 1839 ft | 225 kts | 82° |
| 2026-05-06 07:10 | 22.33989 | 114.00467 | 2082 ft | 233 kts | 81° |
| 2026-05-06 07:10 | 22.34262 | 114.02218 | 2406 ft | 245 kts | 81° |
| 2026-05-06 07:10 | 22.34402 | 114.04106 | 2515 ft | 260 kts | 97° |
| 2026-05-06 07:11 | 22.33897 | 114.06000 | 2889 ft | 266 kts | 119° |
| 2026-05-06 07:11 | 22.32757 | 114.07586 | 3324 ft | 271 kts | 141° |
| 2026-05-06 07:11 | 22.31099 | 114.08570 | 3745 ft | 275 kts | 166° |
| 2026-05-06 07:11 | 22.29187 | 114.08788 | 4173 ft | 277 kts | 182° |
| 2026-05-06 07:12 | 22.27250 | 114.08744 | 4749 ft | 279 kts | 182° |
| 2026-05-06 07:12 | 22.25301 | 114.08725 | 5283 ft | 281 kts | 182° |
| 2026-05-06 07:12 | 22.23367 | 114.08695 | 5818 ft | 282 kts | 182° |
| 2026-05-06 07:12 | 22.21389 | 114.08666 | 6321 ft | 285 kts | 182° |
| 2026-05-06 07:13 | 22.19396 | 114.08643 | 6814 ft | 288 kts | 182° |
| 2026-05-06 07:13 | 22.17402 | 114.08832 | 7181 ft | 293 kts | 162° |
| 2026-05-06 07:13 | 22.15653 | 114.09980 | 7517 ft | 302 kts | 134° |
| 2026-05-06 07:13 | 22.14479 | 114.11860 | 7926 ft | 305 kts | 118° |
| 2026-05-06 07:14 | 22.13509 | 114.13924 | 8301 ft | 310 kts | 118° |
| 2026-05-06 07:14 | 22.12533 | 114.16019 | 8761 ft | 314 kts | 118° |
| 2026-05-06 07:14 | 22.11550 | 114.18127 | 9276 ft | 315 kts | 118° |
| 2026-05-06 07:14 | 22.10552 | 114.20247 | 9773 ft | 318 kts | 118° |
| 2026-05-06 07:15 | 22.09522 | 114.22419 | 10149 ft | 323 kts | 119° |
| 2026-05-06 07:15 | 22.08488 | 114.24591 | 10248 ft | 338 kts | 119° |
| 2026-05-06 07:15 | 22.07168 | 114.26714 | 10314 ft | 346 kts | 139° |
| 2026-05-06 07:15 | 22.05234 | 114.28294 | 10426 ft | 354 kts | 148° |
| 2026-05-06 07:16 | 22.03192 | 114.29817 | 10538 ft | 370 kts | 147° |
| 2026-05-06 07:16 | 22.01054 | 114.31462 | 10731 ft | 383 kts | 146° |
| 2026-05-06 07:16 | 21.98879 | 114.33167 | 11073 ft | 390 kts | 146° |
| 2026-05-06 07:16 | 21.96674 | 114.34907 | 11522 ft | 395 kts | 146° |
| 2026-05-06 07:17 | 21.94444 | 114.36667 | 12038 ft | 398 kts | 146° |
| 2026-05-06 07:17 | 21.92199 | 114.38437 | 12572 ft | 401 kts | 146° |
| 2026-05-06 07:17 | 21.89938 | 114.40217 | 13082 ft | 405 kts | 146° |
| 2026-05-06 07:17 | 21.87651 | 114.42015 | 13590 ft | 408 kts | 146° |
| 2026-05-06 07:18 | 21.85510 | 114.44015 | 13913 ft | 413 kts | 130° |
| 2026-05-06 07:18 | 21.84067 | 114.46719 | 14231 ft | 421 kts | 109° |
| 2026-05-06 07:18 | 21.83294 | 114.49748 | 14658 ft | 421 kts | 105° |
| 2026-05-06 07:18 | 21.82551 | 114.52808 | 15093 ft | 424 kts | 105° |
| 2026-05-06 07:19 | 21.81789 | 114.55879 | 15566 ft | 426 kts | 106° |
| 2026-05-06 07:19 | 21.81010 | 114.58969 | 16050 ft | 428 kts | 106° |
| 2026-05-06 07:19 | 21.80220 | 114.62063 | 16489 ft | 430 kts | 106° |
| 2026-05-06 07:19 | 21.79421 | 114.65175 | 16928 ft | 433 kts | 106° |
| 2026-05-06 07:20 | 21.78615 | 114.68302 | 17340 ft | 435 kts | 106° |
| 2026-05-06 07:20 | 21.77811 | 114.71412 | 17777 ft | 438 kts | 106° |
| 2026-05-06 07:20 | 21.76994 | 114.74575 | 18202 ft | 440 kts | 107° |
| 2026-05-06 07:20 | 21.76170 | 114.77761 | 18533 ft | 443 kts | 106° |
| 2026-05-06 07:21 | 21.75342 | 114.80962 | 18875 ft | 446 kts | 106° |
| 2026-05-06 07:21 | 21.74522 | 114.84194 | 19207 ft | 449 kts | 103° |
| 2026-05-06 07:21 | 21.74132 | 114.87529 | 19505 ft | 452 kts | 91° |
| 2026-05-06 07:21 | 21.74154 | 114.90916 | 19841 ft | 455 kts | 89° |
| 2026-05-06 07:22 | 21.74241 | 114.94322 | 20177 ft | 457 kts | 89° |
| 2026-05-06 07:22 | 21.74315 | 114.97748 | 20525 ft | 459 kts | 89° |
| 2026-05-06 07:22 | 21.74354 | 115.01194 | 20885 ft | 461 kts | 90° |
| 2026-05-06 07:22 | 21.74363 | 115.04651 | 21217 ft | 464 kts | 90° |
| 2026-05-06 07:23 | 21.74355 | 115.08132 | 21536 ft | 467 kts | 90° |
| 2026-05-06 07:23 | 21.74344 | 115.10452 | 21747 ft | 469 kts | 90° |
| 2026-05-06 07:23 | 21.74328 | 115.13963 | 22060 ft | 471 kts | 90° |
| 2026-05-06 07:23 | 21.74314 | 115.17505 | 22379 ft | 474 kts | 90° |
| 2026-05-06 07:24 | 21.74301 | 115.21063 | 22693 ft | 477 kts | 90° |
| 2026-05-06 07:24 | 21.74290 | 115.24641 | 22997 ft | 479 kts | 90° |
| 2026-05-06 07:24 | 21.74283 | 115.28235 | 23315 ft | 482 kts | 90° |
| 2026-05-06 07:24 | 21.74277 | 115.31844 | 23588 ft | 484 kts | 90° |
| 2026-05-06 07:25 | 21.74270 | 115.35482 | 23843 ft | 486 kts | 90° |
| 2026-05-06 07:25 | 21.74261 | 115.39133 | 24106 ft | 488 kts | 90° |
| 2026-05-06 07:25 | 21.74251 | 115.42793 | 24375 ft | 490 kts | 90° |
| 2026-05-06 07:25 | 21.74241 | 115.46415 | 24638 ft | 492 kts | 90° |
| 2026-05-06 07:26 | 21.74229 | 115.50100 | 24893 ft | 493 kts | 90° |
| 2026-05-06 07:26 | 21.74216 | 115.53794 | 25143 ft | 495 kts | 90° |
| 2026-05-06 07:26 | 21.74203 | 115.57511 | 25392 ft | 497 kts | 90° |
| 2026-05-06 07:26 | 21.74189 | 115.61229 | 25635 ft | 499 kts | 90° |
| 2026-05-06 07:27 | 21.74176 | 115.64964 | 25877 ft | 500 kts | 90° |
| 2026-05-06 07:27 | 21.74163 | 115.68715 | 26124 ft | 502 kts | 90° |
| 2026-05-06 07:27 | 21.74149 | 115.72483 | 26355 ft | 504 kts | 90° |
| 2026-05-06 07:27 | 21.74134 | 115.76259 | 26595 ft | 506 kts | 90° |
| 2026-05-06 07:28 | 21.74118 | 115.80065 | 26834 ft | 507 kts | 90° |
| 2026-05-06 07:28 | 21.74102 | 115.83858 | 27066 ft | 509 kts | 90° |
| 2026-05-06 07:28 | 21.74065 | 115.91504 | 27530 ft | 512 kts | 90° |
| 2026-05-06 07:29 | 21.74045 | 115.95341 | 27751 ft | 513 kts | 90° |
| 2026-05-06 07:29 | 21.74024 | 115.99187 | 27976 ft | 515 kts | 90° |
| 2026-05-06 07:29 | 21.74003 | 116.03044 | 28185 ft | 516 kts | 90° |
| 2026-05-06 07:29 | 21.73980 | 116.06910 | 28389 ft | 518 kts | 90° |
| 2026-05-06 07:30 | 21.73957 | 116.10739 | 28590 ft | 519 kts | 90° |
| 2026-05-06 07:30 | 21.73932 | 116.14630 | 28787 ft | 520 kts | 90° |
| 2026-05-06 07:30 | 21.73880 | 116.22426 | 28914 ft | 523 kts | 90° |
| 2026-05-06 07:31 | 21.73824 | 116.30297 | 28942 ft | 527 kts | 90° |
| 2026-05-06 07:31 | 21.73764 | 116.38188 | 28937 ft | 528 kts | 90° |
| 2026-05-06 07:32 | 21.73701 | 116.46077 | 28945 ft | 528 kts | 90° |
| 2026-05-06 07:32 | 21.73633 | 116.53970 | 28943 ft | 533 kts | 90° |
| 2026-05-06 07:33 | 21.73561 | 116.61973 | 28945 ft | 537 kts | 90° |
| 2026-05-06 07:33 | 21.73485 | 116.70029 | 28944 ft | 540 kts | 91° |
| 2026-05-06 07:34 | 21.74008 | 116.78087 | 28939 ft | 542 kts | 79° |
| 2026-05-06 07:34 | 21.75940 | 116.85922 | 28933 ft | 542 kts | 68° |
| 2026-05-06 07:35 | 21.78737 | 116.93462 | 28940 ft | 542 kts | 67° |
| 2026-05-06 07:35 | 21.81548 | 117.00992 | 28942 ft | 543 kts | 68° |
| 2026-05-06 07:36 | 21.84305 | 117.08557 | 28940 ft | 543 kts | 68° |
| 2026-05-06 07:36 | 21.87024 | 117.16106 | 28934 ft | 543 kts | 68° |
| 2026-05-06 07:37 | 21.89755 | 117.23697 | 28939 ft | 543 kts | 68° |
| 2026-05-06 07:37 | 21.92491 | 117.31301 | 28942 ft | 543 kts | 68° |
| 2026-05-06 07:38 | 21.95219 | 117.38894 | 28944 ft | 544 kts | 68° |
| 2026-05-06 07:38 | 21.97941 | 117.46478 | 28940 ft | 543 kts | 68° |
| 2026-05-06 07:39 | 22.01201 | 117.53802 | 28933 ft | 541 kts | 57° |
| 2026-05-06 07:39 | 22.05153 | 117.60644 | 28937 ft | 541 kts | 57° |
| 2026-05-06 07:40 | 22.09140 | 117.67550 | 28938 ft | 541 kts | 57° |
| 2026-05-06 07:40 | 22.13070 | 117.74481 | 28942 ft | 542 kts | 57° |
| 2026-05-06 07:41 | 22.16981 | 117.81425 | 28943 ft | 542 kts | 57° |
| 2026-05-06 07:41 | 22.20891 | 117.88372 | 28936 ft | 541 kts | 57° |
| 2026-05-06 07:42 | 22.24806 | 117.95327 | 28936 ft | 541 kts | 57° |
| 2026-05-06 07:42 | 22.28725 | 118.02274 | 28942 ft | 541 kts | 57° |
| 2026-05-06 07:43 | 22.32752 | 118.09143 | 28943 ft | 542 kts | 56° |
| 2026-05-06 07:43 | 22.36795 | 118.16005 | 28942 ft | 542 kts | 56° |
| 2026-05-06 07:44 | 22.40815 | 118.22898 | 28936 ft | 541 kts | 57° |
| 2026-05-06 07:44 | 22.44763 | 118.29851 | 28936 ft | 542 kts | 57° |
| 2026-05-06 07:45 | 22.48656 | 118.36771 | 28942 ft | 542 kts | 57° |
| 2026-05-06 07:45 | 22.52589 | 118.43738 | 28945 ft | 542 kts | 57° |
| 2026-05-06 07:46 | 22.56519 | 118.50697 | 28940 ft | 542 kts | 57° |
| 2026-05-06 07:46 | 22.60472 | 118.57657 | 28937 ft | 542 kts | 56° |
| 2026-05-06 07:47 | 22.64443 | 118.64602 | 28933 ft | 542 kts | 56° |
| 2026-05-06 07:47 | 22.68413 | 118.71559 | 28943 ft | 542 kts | 56° |
| 2026-05-06 07:48 | 22.72345 | 118.78472 | 28947 ft | 542 kts | 56° |
| 2026-05-06 07:48 | 22.76291 | 118.85422 | 28941 ft | 542 kts | 56° |
| 2026-05-06 07:49 | 22.80239 | 118.92384 | 28932 ft | 541 kts | 57° |
| 2026-05-06 07:49 | 22.84177 | 118.99338 | 28941 ft | 541 kts | 56° |
| 2026-05-06 07:50 | 22.88117 | 119.06304 | 28945 ft | 542 kts | 57° |
| 2026-05-06 07:50 | 22.92034 | 119.13238 | 28942 ft | 542 kts | 57° |
| 2026-05-06 07:51 | 22.95966 | 119.20211 | 28938 ft | 540 kts | 57° |
| 2026-05-06 07:51 | 22.99892 | 119.27180 | 28942 ft | 540 kts | 57° |
| 2026-05-06 07:52 | 23.03813 | 119.34150 | 28941 ft | 541 kts | 57° |
| 2026-05-06 07:52 | 23.07727 | 119.41120 | 28939 ft | 540 kts | 57° |
| 2026-05-06 07:53 | 23.11614 | 119.48049 | 28943 ft | 539 kts | 57° |
| 2026-05-06 07:53 | 23.15520 | 119.55022 | 28948 ft | 540 kts | 57° |
| 2026-05-06 07:54 | 23.19424 | 119.62000 | 28941 ft | 540 kts | 57° |
| 2026-05-06 07:54 | 23.23322 | 119.68984 | 28941 ft | 540 kts | 57° |
| 2026-05-06 07:55 | 23.27217 | 119.75976 | 28946 ft | 540 kts | 57° |
| 2026-05-06 07:55 | 23.30616 | 119.82087 | 28950 ft | 541 kts | 57° |
| 2026-05-06 07:56 | 23.34531 | 119.89068 | 28935 ft | 539 kts | 54° |
| 2026-05-06 07:56 | 23.39137 | 119.95431 | 28938 ft | 536 kts | 44° |
| 2026-05-06 07:57 | 23.44529 | 120.01008 | 28936 ft | 535 kts | 40° |
| 2026-05-06 07:57 | 23.50003 | 120.06538 | 28941 ft | 536 kts | 41° |
| 2026-05-06 07:58 | 23.55402 | 120.12074 | 28945 ft | 535 kts | 41° |
| 2026-05-06 07:58 | 23.60810 | 120.17669 | 28943 ft | 534 kts | 41° |
| 2026-05-06 07:59 | 23.66207 | 120.23261 | 28948 ft | 535 kts | 41° |
| 2026-05-06 07:59 | 23.71609 | 120.28861 | 28949 ft | 535 kts | 41° |
| 2026-05-06 08:00 | 23.77005 | 120.34459 | 28946 ft | 535 kts | 41° |
| 2026-05-06 08:00 | 23.82368 | 120.40030 | 28950 ft | 534 kts | 41° |
| 2026-05-06 08:01 | 23.87749 | 120.45626 | 28947 ft | 534 kts | 41° |
| 2026-05-06 08:01 | 23.93129 | 120.51236 | 28948 ft | 533 kts | 41° |
| 2026-05-06 08:02 | 23.98439 | 120.56834 | 28965 ft | 534 kts | 41° |
| 2026-05-06 08:02 | 24.03765 | 120.62468 | 28961 ft | 532 kts | 41° |
| 2026-05-06 08:03 | 24.09097 | 120.68105 | 28976 ft | 531 kts | 41° |
| 2026-05-06 08:03 | 24.14412 | 120.73729 | 28977 ft | 531 kts | 41° |
| 2026-05-06 08:04 | 24.19714 | 120.79345 | 28959 ft | 529 kts | 41° |
| 2026-05-06 08:04 | 24.24973 | 120.84922 | 28981 ft | 529 kts | 41° |
| 2026-05-06 08:05 | 24.30266 | 120.90544 | 28998 ft | 529 kts | 41° |
| 2026-05-06 08:05 | 24.35549 | 120.96164 | 28993 ft | 528 kts | 41° |
| 2026-05-06 08:06 | 24.40829 | 121.01799 | 29026 ft | 529 kts | 43° |
| 2026-05-06 08:06 | 24.45581 | 121.07925 | 29034 ft | 532 kts | 49° |
| 2026-05-06 08:07 | 24.50148 | 121.14328 | 29013 ft | 532 kts | 49° |
| 2026-05-06 08:07 | 24.54726 | 121.20710 | 29011 ft | 531 kts | 49° |
| 2026-05-06 08:08 | 24.59326 | 121.27066 | 29009 ft | 530 kts | 48° |
| 2026-05-06 08:08 | 24.63898 | 121.33376 | 29006 ft | 530 kts | 48° |
| 2026-05-06 08:09 | 24.68492 | 121.39732 | 29001 ft | 528 kts | 48° |
| 2026-05-06 08:09 | 24.72334 | 121.45054 | 29003 ft | 529 kts | 48° |
| 2026-05-06 08:10 | 24.76135 | 121.50329 | 28987 ft | 529 kts | 48° |
| 2026-05-06 08:10 | 24.80700 | 121.56671 | 28989 ft | 529 kts | 48° |
| 2026-05-06 08:11 | 24.85273 | 121.63032 | 28981 ft | 528 kts | 48° |
| 2026-05-06 08:11 | 24.89790 | 121.69323 | 28989 ft | 526 kts | 48° |
| 2026-05-06 08:12 | 24.94529 | 121.75522 | 28977 ft | 524 kts | 45° |
| 2026-05-06 08:12 | 24.99322 | 121.81505 | 28972 ft | 523 kts | 45° |
| 2026-05-06 08:13 | 25.04113 | 121.87576 | 28981 ft | 525 kts | 45° |
| 2026-05-06 08:13 | 25.08870 | 121.93675 | 28975 ft | 524 kts | 45° |
| 2026-05-06 08:14 | 25.13624 | 121.99771 | 28963 ft | 523 kts | 45° |
| 2026-05-06 08:14 | 25.18362 | 122.05887 | 28977 ft | 524 kts | 46° |
| 2026-05-06 08:15 | 25.23080 | 122.12009 | 28977 ft | 524 kts | 46° |
| 2026-05-06 08:15 | 25.27795 | 122.18133 | 28966 ft | 522 kts | 45° |
| 2026-05-06 08:16 | 25.32510 | 122.24259 | 28972 ft | 522 kts | 45° |
| 2026-05-06 08:16 | 25.37211 | 122.30373 | 28969 ft | 521 kts | 45° |
| 2026-05-06 08:17 | 25.41869 | 122.36442 | 28973 ft | 521 kts | 45° |
| 2026-05-06 08:17 | 25.46554 | 122.42552 | 28964 ft | 520 kts | 46° |
| 2026-05-06 08:18 | 25.50729 | 122.49158 | 28974 ft | 528 kts | 56° |
| 2026-05-06 08:18 | 25.53830 | 122.56575 | 28972 ft | 532 kts | 65° |
| 2026-05-06 08:19 | 25.56370 | 122.64285 | 28970 ft | 532 kts | 66° |
| 2026-05-06 08:19 | 25.58936 | 122.71986 | 28968 ft | 533 kts | 65° |
| 2026-05-06 08:20 | 25.61535 | 122.79632 | 28957 ft | 533 kts | 65° |
| 2026-05-06 08:20 | 25.64151 | 122.87332 | 28959 ft | 533 kts | 65° |
| 2026-05-06 08:21 | 25.66742 | 122.95048 | 28968 ft | 534 kts | 65° |
| 2026-05-06 08:21 | 25.69332 | 123.02773 | 28978 ft | 535 kts | 65° |
| 2026-05-06 08:22 | 25.71924 | 123.10476 | 28973 ft | 533 kts | 65° |
| 2026-05-06 08:22 | 25.74495 | 123.18121 | 28968 ft | 532 kts | 65° |
| 2026-05-06 08:23 | 25.77078 | 123.25825 | 28977 ft | 533 kts | 65° |
| 2026-05-06 08:23 | 25.79652 | 123.33523 | 28976 ft | 533 kts | 65° |
| 2026-05-06 08:24 | 25.82227 | 123.41239 | 28971 ft | 531 kts | 65° |
| 2026-05-06 08:24 | 25.84796 | 123.48953 | 28979 ft | 532 kts | 65° |
| 2026-05-06 08:25 | 25.87360 | 123.56665 | 28975 ft | 532 kts | 65° |
| 2026-05-06 08:25 | 25.89921 | 123.64376 | 28980 ft | 532 kts | 65° |
| 2026-05-06 08:26 | 25.92470 | 123.72054 | 28980 ft | 533 kts | 64° |
| 2026-05-06 08:26 | 25.95029 | 123.79776 | 28972 ft | 532 kts | 64° |
| 2026-05-06 08:27 | 25.97582 | 123.87504 | 28976 ft | 532 kts | 64° |
| 2026-05-06 08:27 | 26.00124 | 123.95232 | 28974 ft | 532 kts | 66° |
| 2026-05-06 08:28 | 26.01926 | 124.03291 | 28984 ft | 542 kts | 76° |
| 2026-05-06 08:28 | 26.02570 | 124.11673 | 28986 ft | 544 kts | 81° |
| 2026-05-06 08:29 | 26.03024 | 124.20021 | 28980 ft | 544 kts | 81° |
| 2026-05-06 08:29 | 26.03517 | 124.28443 | 28983 ft | 544 kts | 81° |
| 2026-05-06 08:30 | 26.04042 | 124.36845 | 28980 ft | 544 kts | 81° |
| 2026-05-06 08:30 | 26.04569 | 124.45198 | 28981 ft | 544 kts | 81° |
| 2026-05-06 08:31 | 26.05091 | 124.53591 | 28989 ft | 545 kts | 81° |
| 2026-05-06 08:31 | 26.05608 | 124.62023 | 28979 ft | 545 kts | 81° |
| 2026-05-06 08:32 | 26.06117 | 124.70436 | 28989 ft | 546 kts | 81° |
| 2026-05-06 08:32 | 26.06623 | 124.78873 | 28984 ft | 546 kts | 81° |
| 2026-05-06 08:33 | 26.07123 | 124.87290 | 28981 ft | 546 kts | 81° |
| 2026-05-06 08:33 | 26.07619 | 124.95716 | 28988 ft | 546 kts | 81° |
| 2026-05-06 08:34 | 26.08356 | 125.08385 | 28990 ft | 548 kts | 81° |
| 2026-05-06 08:35 | 26.08840 | 125.16801 | 28995 ft | 549 kts | 82° |
| 2026-05-06 08:35 | 26.09322 | 125.25298 | 28986 ft | 550 kts | 82° |
| 2026-05-06 08:36 | 26.09799 | 125.33798 | 28993 ft | 550 kts | 82° |
| 2026-05-06 08:36 | 26.10272 | 125.42300 | 28993 ft | 550 kts | 82° |
| 2026-05-06 08:37 | 26.10740 | 125.50805 | 28987 ft | 550 kts | 83° |
| 2026-05-06 08:37 | 26.11201 | 125.59273 | 28998 ft | 552 kts | 83° |
| 2026-05-06 08:38 | 26.11663 | 125.67852 | 28996 ft | 552 kts | 84° |
| 2026-05-06 08:38 | 26.12114 | 125.76320 | 28993 ft | 553 kts | 84° |
| 2026-05-06 08:39 | 26.12564 | 125.84868 | 28994 ft | 554 kts | 85° |
| 2026-05-06 08:39 | 26.13010 | 125.93441 | 29002 ft | 555 kts | 86° |
| 2026-05-06 08:40 | 26.13452 | 126.02023 | 28995 ft | 555 kts | 86° |
| 2026-05-06 08:40 | 26.13888 | 126.10607 | 28992 ft | 555 kts | 87° |
| 2026-05-06 08:41 | 26.14321 | 126.19206 | 28998 ft | 556 kts | 87° |
| 2026-05-06 08:41 | 26.14747 | 126.27734 | 28992 ft | 555 kts | 88° |
| 2026-05-06 08:42 | 26.15173 | 126.36343 | 28995 ft | 555 kts | 88° |
| 2026-05-06 08:42 | 26.15593 | 126.44924 | 28993 ft | 555 kts | 88° |
| 2026-05-06 08:43 | 26.16008 | 126.53522 | 29006 ft | 557 kts | 89° |
| 2026-05-06 08:43 | 26.16418 | 126.62116 | 28996 ft | 555 kts | 89° |
| 2026-05-06 08:44 | 26.16823 | 126.70708 | 28997 ft | 555 kts | 89° |
| 2026-05-06 08:44 | 26.17219 | 126.79226 | 29002 ft | 555 kts | 89° |
| 2026-05-06 08:45 | 26.17613 | 126.87796 | 29003 ft | 554 kts | 90° |
| 2026-05-06 08:45 | 26.18002 | 126.96375 | 29001 ft | 554 kts | 90° |
| 2026-05-06 08:46 | 26.18359 | 127.04358 | 28999 ft | 554 kts | 90° |
| 2026-05-06 08:46 | 26.18737 | 127.12917 | 28985 ft | 554 kts | 90° |
| 2026-05-06 08:47 | 26.19110 | 127.21480 | 28981 ft | 552 kts | 90° |
| 2026-05-06 08:47 | 26.19478 | 127.30034 | 28998 ft | 553 kts | 90° |
| 2026-05-06 08:48 | 26.19838 | 127.38527 | 28984 ft | 551 kts | 90° |
| 2026-05-06 08:48 | 26.20194 | 127.47061 | 29002 ft | 552 kts | 90° |
| 2026-05-06 08:49 | 26.20548 | 127.55621 | 28996 ft | 554 kts | 90° |
| 2026-05-06 08:49 | 26.20232 | 127.64143 | 28996 ft | 549 kts | 102° |
| 2026-05-06 08:50 | 26.18578 | 127.72380 | 28985 ft | 540 kts | 112° |
| 2026-05-06 08:50 | 26.17710 | 127.76433 | 29004 ft | 543 kts | 97° |
| 2026-05-06 08:50 | 26.17911 | 127.80664 | 29021 ft | 553 kts | 79° |
| 2026-05-06 08:50 | 26.19210 | 127.84637 | 29015 ft | 559 kts | 61° |
| 2026-05-06 08:51 | 26.21534 | 127.88100 | 29020 ft | 561 kts | 43° |
| 2026-05-06 08:51 | 26.24640 | 127.90706 | 29034 ft | 560 kts | 29° |
| 2026-05-06 08:51 | 26.28032 | 127.92852 | 29016 ft | 561 kts | 28° |
| 2026-05-06 08:52 | 26.34658 | 127.97501 | 28997 ft | 564 kts | 35° |
| 2026-05-06 08:52 | 26.40813 | 128.02894 | 29004 ft | 566 kts | 39° |
| 2026-05-06 08:53 | 26.46764 | 128.08622 | 29007 ft | 564 kts | 40° |
| 2026-05-06 08:53 | 26.52552 | 128.14195 | 29020 ft | 566 kts | 40° |
| 2026-05-06 08:54 | 26.58549 | 128.19868 | 29011 ft | 564 kts | 40° |
| 2026-05-06 08:54 | 26.64564 | 128.25516 | 29019 ft | 564 kts | 40° |
| 2026-05-06 08:55 | 26.70571 | 128.31165 | 29020 ft | 565 kts | 40° |
| 2026-05-06 08:55 | 26.76589 | 128.36842 | 29000 ft | 565 kts | 40° |
| 2026-05-06 08:56 | 26.81582 | 128.41563 | 28994 ft | 566 kts | 40° |
| 2026-05-06 08:56 | 26.87590 | 128.47250 | 28982 ft | 565 kts | 40° |
| 2026-05-06 08:57 | 26.93598 | 128.52945 | 28978 ft | 565 kts | 40° |
| 2026-05-06 08:57 | 26.99572 | 128.58616 | 28985 ft | 565 kts | 40° |
| 2026-05-06 08:58 | 27.05568 | 128.64315 | 28988 ft | 565 kts | 40° |
| 2026-05-06 08:58 | 27.11575 | 128.70033 | 28998 ft | 566 kts | 40° |
| 2026-05-06 08:59 | 27.17576 | 128.75755 | 28998 ft | 565 kts | 40° |
| 2026-05-06 08:59 | 27.23574 | 128.81481 | 28990 ft | 565 kts | 40° |
| 2026-05-06 09:00 | 27.29535 | 128.87181 | 28986 ft | 565 kts | 40° |
| 2026-05-06 09:00 | 27.35535 | 128.92927 | 28990 ft | 567 kts | 40° |
| 2026-05-06 09:01 | 27.41537 | 128.98684 | 28998 ft | 566 kts | 40° |
| 2026-05-06 09:01 | 27.47544 | 129.04458 | 29006 ft | 566 kts | 41° |
| 2026-05-06 09:01 | 27.50279 | 129.07564 | 29004 ft | 566 kts | 52° |
| 2026-05-06 09:02 | 27.52553 | 129.11178 | 29025 ft | 565 kts | 61° |
| 2026-05-06 09:02 | 27.55646 | 129.19234 | 29016 ft | 556 kts | 78° |
| 2026-05-06 09:03 | 27.57586 | 129.27681 | 29019 ft | 557 kts | 78° |
| 2026-05-06 09:03 | 27.59549 | 129.36139 | 29020 ft | 557 kts | 78° |
| 2026-05-06 09:04 | 27.61583 | 129.44586 | 29025 ft | 558 kts | 77° |
| 2026-05-06 09:04 | 27.63641 | 129.53016 | 29020 ft | 558 kts | 77° |
| 2026-05-06 09:05 | 27.65680 | 129.61407 | 29020 ft | 558 kts | 77° |
| 2026-05-06 09:05 | 27.67724 | 129.69867 | 29025 ft | 559 kts | 77° |
| 2026-05-06 09:06 | 27.69761 | 129.78334 | 29017 ft | 558 kts | 77° |
| 2026-05-06 09:06 | 27.71793 | 129.86802 | 29020 ft | 558 kts | 77° |
| 2026-05-06 09:07 | 27.73822 | 129.95284 | 29023 ft | 559 kts | 78° |
| 2026-05-06 09:07 | 27.75846 | 130.03768 | 29023 ft | 560 kts | 78° |
| 2026-05-06 09:08 | 27.77854 | 130.12207 | 29024 ft | 560 kts | 78° |
| 2026-05-06 09:08 | 27.79874 | 130.20722 | 29026 ft | 561 kts | 78° |
| 2026-05-06 09:09 | 27.81889 | 130.29244 | 29022 ft | 561 kts | 78° |
| 2026-05-06 09:09 | 27.83899 | 130.37766 | 29022 ft | 561 kts | 78° |
| 2026-05-06 09:10 | 27.85904 | 130.46299 | 29029 ft | 561 kts | 78° |
| 2026-05-06 09:10 | 27.87902 | 130.54838 | 29027 ft | 562 kts | 78° |
| 2026-05-06 09:11 | 27.89859 | 130.63382 | 29022 ft | 561 kts | 78° |
| 2026-05-06 09:11 | 27.91789 | 130.71878 | 29028 ft | 561 kts | 78° |
| 2026-05-06 09:12 | 27.93727 | 130.80417 | 29021 ft | 561 kts | 78° |
| 2026-05-06 09:12 | 27.95669 | 130.88984 | 29024 ft | 561 kts | 78° |
| 2026-05-06 09:13 | 27.97606 | 130.97545 | 29023 ft | 562 kts | 78° |
| 2026-05-06 09:13 | 27.99538 | 131.06116 | 29017 ft | 561 kts | 78° |
| 2026-05-06 09:14 | 28.01452 | 131.14633 | 29024 ft | 561 kts | 78° |
| 2026-05-06 09:14 | 28.03372 | 131.23204 | 29019 ft | 561 kts | 78° |
| 2026-05-06 09:15 | 28.05288 | 131.31788 | 29026 ft | 562 kts | 78° |
| 2026-05-06 09:15 | 28.07199 | 131.40372 | 29027 ft | 562 kts | 78° |
| 2026-05-06 09:16 | 28.09103 | 131.48954 | 29025 ft | 562 kts | 78° |
| 2026-05-06 09:16 | 28.11004 | 131.57545 | 29024 ft | 562 kts | 78° |
| 2026-05-06 09:17 | 28.12891 | 131.66103 | 29025 ft | 563 kts | 78° |
| 2026-05-06 09:17 | 28.14786 | 131.74726 | 29024 ft | 563 kts | 78° |
| 2026-05-06 09:18 | 28.16677 | 131.83356 | 29025 ft | 563 kts | 78° |
| 2026-05-06 09:18 | 28.18560 | 131.91981 | 29023 ft | 564 kts | 78° |
| 2026-05-06 09:19 | 28.20441 | 132.00619 | 29020 ft | 565 kts | 78° |
| 2026-05-06 09:19 | 28.22320 | 132.09283 | 29028 ft | 566 kts | 78° |
| 2026-05-06 09:20 | 28.24183 | 132.17897 | 29021 ft | 566 kts | 78° |
| 2026-05-06 09:20 | 28.26055 | 132.26581 | 29027 ft | 566 kts | 78° |
| 2026-05-06 09:21 | 28.27923 | 132.35275 | 29024 ft | 566 kts | 78° |
| 2026-05-06 09:21 | 28.29785 | 132.43966 | 29020 ft | 565 kts | 78° |
| 2026-05-06 09:22 | 28.31626 | 132.52591 | 29025 ft | 565 kts | 78° |
| 2026-05-06 09:22 | 28.33469 | 132.61260 | 29024 ft | 565 kts | 79° |
| 2026-05-06 09:23 | 28.35311 | 132.69945 | 29023 ft | 564 kts | 79° |
| 2026-05-06 09:23 | 28.37144 | 132.78615 | 29026 ft | 564 kts | 79° |
| 2026-05-06 09:24 | 28.38967 | 132.87272 | 29022 ft | 563 kts | 79° |
| 2026-05-06 09:24 | 28.40787 | 132.95939 | 29025 ft | 564 kts | 79° |
| 2026-05-06 09:25 | 28.42588 | 133.04549 | 29020 ft | 563 kts | 79° |
| 2026-05-06 09:25 | 28.44399 | 133.13230 | 29030 ft | 562 kts | 79° |
| 2026-05-06 09:26 | 28.46185 | 133.21825 | 29026 ft | 562 kts | 79° |
| 2026-05-06 09:26 | 28.47977 | 133.30479 | 29027 ft | 561 kts | 79° |
| 2026-05-06 09:27 | 28.49762 | 133.39125 | 29030 ft | 561 kts | 79° |
| 2026-05-06 09:27 | 28.51538 | 133.47759 | 29032 ft | 560 kts | 79° |
| 2026-05-06 09:28 | 28.53304 | 133.56371 | 29027 ft | 559 kts | 79° |
| 2026-05-06 09:28 | 28.55057 | 133.64955 | 29029 ft | 560 kts | 79° |
| 2026-05-06 09:29 | 28.56817 | 133.73598 | 29034 ft | 560 kts | 79° |
| 2026-05-06 09:29 | 28.58573 | 133.82241 | 29037 ft | 560 kts | 78° |
| 2026-05-06 09:30 | 28.60541 | 133.90767 | 29036 ft | 560 kts | 76° |
| 2026-05-06 09:30 | 28.62700 | 133.99304 | 29036 ft | 560 kts | 75° |
| 2026-05-06 09:31 | 28.64832 | 134.07833 | 29039 ft | 560 kts | 76° |
| 2026-05-06 09:31 | 28.66916 | 134.16393 | 29040 ft | 561 kts | 76° |
| 2026-05-06 09:32 | 28.68973 | 134.24955 | 29038 ft | 561 kts | 76° |
| 2026-05-06 09:32 | 28.71027 | 134.33525 | 29040 ft | 560 kts | 76° |
| 2026-05-06 09:33 | 28.73078 | 134.42094 | 29041 ft | 560 kts | 76° |
| 2026-05-06 09:33 | 28.75115 | 134.50619 | 29042 ft | 561 kts | 76° |
| 2026-05-06 09:34 | 28.77160 | 134.59203 | 29042 ft | 561 kts | 76° |
| 2026-05-06 09:34 | 28.79200 | 134.67791 | 29052 ft | 561 kts | 76° |
| 2026-05-06 09:35 | 28.81236 | 134.76392 | 29061 ft | 561 kts | 76° |
| 2026-05-06 09:35 | 28.83254 | 134.84942 | 29332 ft | 560 kts | 75° |
| 2026-05-06 09:35 | 28.84264 | 134.89231 | 29529 ft | 559 kts | 75° |
| 2026-05-06 09:36 | 28.85272 | 134.93519 | 29669 ft | 559 kts | 75° |
| 2026-05-06 09:36 | 28.86279 | 134.97808 | 29814 ft | 559 kts | 75° |
| 2026-05-06 09:36 | 28.87284 | 135.02099 | 29944 ft | 559 kts | 75° |
| 2026-05-06 09:36 | 28.88288 | 135.06388 | 30097 ft | 559 kts | 75° |
| 2026-05-06 09:37 | 28.89289 | 135.10675 | 30247 ft | 558 kts | 75° |
| 2026-05-06 09:37 | 28.90289 | 135.14961 | 30402 ft | 558 kts | 75° |
| 2026-05-06 09:37 | 28.91271 | 135.19174 | 30534 ft | 558 kts | 75° |
| 2026-05-06 09:37 | 28.92268 | 135.23464 | 30661 ft | 557 kts | 75° |
| 2026-05-06 09:38 | 28.93262 | 135.27744 | 30801 ft | 557 kts | 75° |
| 2026-05-06 09:38 | 28.94252 | 135.32015 | 30937 ft | 555 kts | 75° |
| 2026-05-06 09:38 | 28.95239 | 135.36278 | 30990 ft | 554 kts | 75° |
| 2026-05-06 09:39 | 28.97200 | 135.44768 | 31056 ft | 552 kts | 75° |
| 2026-05-06 09:39 | 28.99150 | 135.53239 | 31059 ft | 550 kts | 75° |
| 2026-05-06 09:40 | 29.01082 | 135.61655 | 31070 ft | 551 kts | 75° |
| 2026-05-06 09:40 | 29.03994 | 135.74393 | 31066 ft | 553 kts | 75° |
| 2026-05-06 09:41 | 29.05935 | 135.82916 | 31070 ft | 555 kts | 75° |
| 2026-05-06 09:41 | 29.07875 | 135.91462 | 31069 ft | 555 kts | 75° |
| 2026-05-06 09:42 | 29.09798 | 135.99959 | 31073 ft | 555 kts | 75° |
| 2026-05-06 09:42 | 29.11729 | 136.08517 | 31076 ft | 556 kts | 75° |
| 2026-05-06 09:43 | 29.13660 | 136.17105 | 31080 ft | 558 kts | 75° |
| 2026-05-06 09:43 | 29.15267 | 136.24273 | 31080 ft | 559 kts | 75° |
| 2026-05-06 09:44 | 29.17504 | 136.34283 | 31082 ft | 559 kts | 75° |
| 2026-05-06 09:44 | 29.19428 | 136.42921 | 31080 ft | 560 kts | 75° |
| 2026-05-06 09:45 | 29.21039 | 136.50179 | 31083 ft | 561 kts | 75° |
| 2026-05-06 09:45 | 29.22946 | 136.58792 | 31085 ft | 562 kts | 75° |
| 2026-05-06 09:46 | 29.24859 | 136.67463 | 31084 ft | 561 kts | 75° |
| 2026-05-06 09:46 | 29.26765 | 136.76127 | 31086 ft | 560 kts | 75° |
| 2026-05-06 09:47 | 29.28650 | 136.84729 | 31093 ft | 560 kts | 75° |
| 2026-05-06 09:47 | 29.30545 | 136.93401 | 31091 ft | 562 kts | 75° |
| 2026-05-06 09:48 | 29.32441 | 137.02109 | 31090 ft | 562 kts | 75° |
| 2026-05-06 09:48 | 29.34329 | 137.10809 | 31090 ft | 561 kts | 75° |
| 2026-05-06 09:49 | 29.36205 | 137.19485 | 31091 ft | 560 kts | 75° |
| 2026-05-06 09:49 | 29.38078 | 137.28174 | 31098 ft | 562 kts | 75° |
| 2026-05-06 09:50 | 29.39934 | 137.36811 | 31096 ft | 562 kts | 75° |
| 2026-05-06 09:50 | 29.41795 | 137.45506 | 31096 ft | 561 kts | 76° |
| 2026-05-06 09:51 | 29.43651 | 137.54201 | 31098 ft | 561 kts | 76° |
| 2026-05-06 09:51 | 29.45502 | 137.62907 | 31099 ft | 561 kts | 76° |
| 2026-05-06 09:52 | 29.47348 | 137.71618 | 31104 ft | 561 kts | 76° |
| 2026-05-06 09:52 | 29.49188 | 137.80331 | 31102 ft | 561 kts | 76° |
| 2026-05-06 09:53 | 29.51009 | 137.88982 | 31102 ft | 561 kts | 76° |
| 2026-05-06 09:53 | 29.52834 | 137.97684 | 31110 ft | 561 kts | 76° |
| 2026-05-06 09:54 | 29.54657 | 138.06404 | 31108 ft | 560 kts | 76° |
| 2026-05-06 09:54 | 29.56472 | 138.15121 | 31113 ft | 560 kts | 76° |
| 2026-05-06 09:55 | 29.58270 | 138.23784 | 31114 ft | 561 kts | 76° |
| 2026-05-06 09:55 | 29.60073 | 138.32501 | 31114 ft | 560 kts | 76° |
| 2026-05-06 09:56 | 29.61868 | 138.41209 | 31114 ft | 560 kts | 77° |
| 2026-05-06 09:56 | 29.63659 | 138.49929 | 31115 ft | 560 kts | 77° |
| 2026-05-06 09:57 | 29.65444 | 138.58649 | 31118 ft | 560 kts | 77° |
| 2026-05-06 09:57 | 29.67223 | 138.67375 | 31124 ft | 561 kts | 77° |
| 2026-05-06 09:58 | 29.68989 | 138.76067 | 31125 ft | 561 kts | 77° |
| 2026-05-06 09:58 | 29.70761 | 138.84819 | 31126 ft | 561 kts | 77° |
| 2026-05-06 09:59 | 29.72529 | 138.93583 | 31132 ft | 562 kts | 77° |
| 2026-05-06 09:59 | 29.74291 | 139.02344 | 31128 ft | 561 kts | 77° |
| 2026-05-06 10:00 | 29.76042 | 139.11091 | 31135 ft | 561 kts | 77° |
| 2026-05-06 10:00 | 29.77778 | 139.19789 | 31138 ft | 561 kts | 77° |
| 2026-05-06 10:01 | 29.79523 | 139.28560 | 31131 ft | 561 kts | 77° |
| 2026-05-06 10:01 | 29.81257 | 139.37313 | 31139 ft | 560 kts | 77° |
| 2026-05-06 10:02 | 29.82983 | 139.46060 | 31150 ft | 560 kts | 77° |
| 2026-05-06 10:02 | 29.84696 | 139.54774 | 31147 ft | 560 kts | 77° |
| 2026-05-06 10:03 | 29.86416 | 139.63550 | 31141 ft | 560 kts | 77° |
| 2026-05-06 10:03 | 29.88130 | 139.72329 | 31143 ft | 561 kts | 77° |
| 2026-05-06 10:04 | 29.89827 | 139.81060 | 31148 ft | 561 kts | 78° |
| 2026-05-06 10:04 | 29.91530 | 139.89850 | 31146 ft | 562 kts | 78° |
| 2026-05-06 10:05 | 29.93227 | 139.98643 | 31147 ft | 562 kts | 78° |
| 2026-05-06 10:05 | 29.94921 | 140.07450 | 31152 ft | 562 kts | 78° |
| 2026-05-06 10:06 | 29.96607 | 140.16255 | 31154 ft | 562 kts | 78° |
| 2026-05-06 10:06 | 29.98291 | 140.25074 | 31160 ft | 562 kts | 78° |
| 2026-05-06 10:07 | 30.00265 | 140.33735 | 31152 ft | 561 kts | 70° |
| 2026-05-06 10:07 | 30.03401 | 140.41970 | 31153 ft | 560 kts | 60° |
| 2026-05-06 10:08 | 30.07174 | 140.49857 | 31166 ft | 561 kts | 60° |
| 2026-05-06 10:08 | 30.10947 | 140.57737 | 31161 ft | 561 kts | 60° |
| 2026-05-06 10:09 | 30.14676 | 140.65651 | 31161 ft | 561 kts | 60° |
| 2026-05-06 10:09 | 30.18385 | 140.73604 | 31165 ft | 562 kts | 61° |
| 2026-05-06 10:10 | 30.22062 | 140.81514 | 31167 ft | 562 kts | 61° |
| 2026-05-06 10:10 | 30.25763 | 140.89481 | 31164 ft | 562 kts | 61° |
| 2026-05-06 10:11 | 30.29469 | 140.97471 | 31169 ft | 562 kts | 61° |
| 2026-05-06 10:11 | 30.33150 | 141.05418 | 31169 ft | 563 kts | 61° |
| 2026-05-06 10:12 | 30.36845 | 141.13415 | 31170 ft | 563 kts | 61° |
| 2026-05-06 10:12 | 30.40533 | 141.21415 | 31174 ft | 563 kts | 61° |
| 2026-05-06 10:13 | 30.44212 | 141.29412 | 31179 ft | 562 kts | 61° |
| 2026-05-06 10:13 | 30.47891 | 141.37425 | 31179 ft | 563 kts | 61° |
| 2026-05-06 10:14 | 30.51568 | 141.45450 | 31180 ft | 563 kts | 61° |
| 2026-05-06 10:14 | 30.55236 | 141.53471 | 31177 ft | 562 kts | 61° |
| 2026-05-06 10:15 | 30.58897 | 141.61496 | 31185 ft | 563 kts | 61° |
| 2026-05-06 10:15 | 30.62563 | 141.69547 | 31181 ft | 563 kts | 61° |
| 2026-05-06 10:16 | 30.66217 | 141.77589 | 31188 ft | 563 kts | 61° |
| 2026-05-06 10:16 | 30.69850 | 141.85603 | 31187 ft | 564 kts | 61° |
| 2026-05-06 10:17 | 30.73503 | 141.93678 | 31192 ft | 564 kts | 61° |
| 2026-05-06 10:17 | 30.77153 | 142.01762 | 31190 ft | 564 kts | 61° |
| 2026-05-06 10:18 | 30.80798 | 142.09853 | 31193 ft | 565 kts | 61° |
| 2026-05-06 10:18 | 30.84425 | 142.17921 | 31192 ft | 565 kts | 62° |
| 2026-05-06 10:19 | 30.88064 | 142.26033 | 31195 ft | 564 kts | 62° |
| 2026-05-06 10:19 | 30.91692 | 142.34139 | 31194 ft | 564 kts | 62° |
| 2026-05-06 10:20 | 30.95297 | 142.42209 | 31200 ft | 565 kts | 62° |
| 2026-05-06 10:20 | 30.98929 | 142.50358 | 31196 ft | 566 kts | 62° |
| 2026-05-06 10:21 | 31.02552 | 142.58505 | 31202 ft | 565 kts | 62° |
| 2026-05-06 10:21 | 31.06142 | 142.66596 | 31201 ft | 565 kts | 62° |
| 2026-05-06 10:22 | 31.09744 | 142.74731 | 31204 ft | 565 kts | 62° |
| 2026-05-06 10:22 | 31.13348 | 142.82886 | 31196 ft | 564 kts | 62° |
| 2026-05-06 10:23 | 31.16943 | 142.91041 | 31204 ft | 564 kts | 62° |
| 2026-05-06 10:23 | 31.20529 | 142.99192 | 31204 ft | 564 kts | 62° |
| 2026-05-06 10:24 | 31.24108 | 143.07346 | 31211 ft | 564 kts | 62° |
| 2026-05-06 10:24 | 31.27662 | 143.15459 | 31210 ft | 565 kts | 62° |
| 2026-05-06 10:25 | 31.31237 | 143.23640 | 31211 ft | 565 kts | 62° |
| 2026-05-06 10:25 | 31.34809 | 143.31831 | 31207 ft | 565 kts | 62° |
| 2026-05-06 10:26 | 31.38381 | 143.40042 | 31216 ft | 566 kts | 62° |
| 2026-05-06 10:26 | 31.41955 | 143.48272 | 31203 ft | 566 kts | 62° |
| 2026-05-06 10:27 | 31.45520 | 143.56504 | 31217 ft | 566 kts | 62° |
| 2026-05-06 10:27 | 31.49060 | 143.64695 | 31212 ft | 567 kts | 62° |
| 2026-05-06 10:28 | 31.52618 | 143.72945 | 31220 ft | 567 kts | 62° |
| 2026-05-06 10:28 | 31.56162 | 143.81181 | 31207 ft | 560 kts | 63° |
| 2026-05-06 10:29 | 31.59654 | 143.89317 | 31215 ft | 559 kts | 63° |
| 2026-05-06 10:29 | 31.63159 | 143.97500 | 31223 ft | 562 kts | 63° |
| 2026-05-06 10:30 | 31.66644 | 144.05654 | 31218 ft | 562 kts | 63° |
| 2026-05-06 10:30 | 31.70142 | 144.13857 | 31215 ft | 561 kts | 63° |
| 2026-05-06 10:31 | 31.73634 | 144.22066 | 31217 ft | 561 kts | 63° |
| 2026-05-06 10:31 | 31.76535 | 144.28897 | 31220 ft | 561 kts | 63° |
| 2026-05-06 10:32 | 31.80014 | 144.37108 | 31221 ft | 562 kts | 63° |
| 2026-05-06 10:32 | 31.83497 | 144.45348 | 31220 ft | 562 kts | 63° |
| 2026-05-06 10:33 | 31.86944 | 144.53521 | 31220 ft | 562 kts | 63° |
| 2026-05-06 10:33 | 31.90416 | 144.61772 | 31224 ft | 562 kts | 63° |
| 2026-05-06 10:34 | 31.93880 | 144.70022 | 31221 ft | 561 kts | 63° |
| 2026-05-06 10:34 | 31.97333 | 144.78266 | 31222 ft | 561 kts | 63° |
| 2026-05-06 10:35 | 32.00788 | 144.86532 | 31227 ft | 562 kts | 63° |
| 2026-05-06 10:35 | 32.04214 | 144.94747 | 31227 ft | 561 kts | 63° |
| 2026-05-06 10:36 | 32.07654 | 145.03016 | 31225 ft | 561 kts | 63° |
| 2026-05-06 10:36 | 32.11088 | 145.11292 | 31230 ft | 562 kts | 63° |
| 2026-05-06 10:37 | 32.14520 | 145.19579 | 31227 ft | 562 kts | 63° |
| 2026-05-06 10:37 | 32.17949 | 145.27879 | 31226 ft | 562 kts | 63° |
| 2026-05-06 10:38 | 32.21353 | 145.36139 | 31231 ft | 562 kts | 63° |
| 2026-05-06 10:38 | 32.24770 | 145.44449 | 31233 ft | 562 kts | 63° |
| 2026-05-06 10:39 | 32.28183 | 145.52768 | 31235 ft | 562 kts | 63° |
| 2026-05-06 10:39 | 32.31591 | 145.61095 | 31242 ft | 563 kts | 63° |
| 2026-05-06 10:40 | 32.34996 | 145.69434 | 31237 ft | 563 kts | 64° |
| 2026-05-06 10:40 | 32.38395 | 145.77777 | 31239 ft | 562 kts | 64° |
| 2026-05-06 10:41 | 32.41764 | 145.86069 | 31237 ft | 562 kts | 64° |
| 2026-05-06 10:41 | 32.45149 | 145.94417 | 31242 ft | 561 kts | 64° |
| 2026-05-06 10:42 | 32.48520 | 146.02753 | 31244 ft | 561 kts | 64° |
| 2026-05-06 10:42 | 32.51884 | 146.11090 | 31243 ft | 559 kts | 64° |
| 2026-05-06 10:43 | 32.55213 | 146.19360 | 31249 ft | 558 kts | 64° |
| 2026-05-06 10:44 | 32.60220 | 146.31836 | 31247 ft | 558 kts | 64° |
| 2026-05-06 10:44 | 32.63544 | 146.40142 | 31251 ft | 557 kts | 64° |
| 2026-05-06 10:45 | 32.66862 | 146.48453 | 31256 ft | 556 kts | 64° |
| 2026-05-06 10:45 | 32.70147 | 146.56702 | 31254 ft | 555 kts | 64° |
| 2026-05-06 10:46 | 32.73443 | 146.64999 | 31254 ft | 554 kts | 64° |
| 2026-05-06 10:46 | 32.76729 | 146.73289 | 31258 ft | 554 kts | 64° |
| 2026-05-06 10:47 | 32.79737 | 146.80897 | 31254 ft | 554 kts | 64° |
| 2026-05-06 10:47 | 32.83006 | 146.89182 | 31259 ft | 553 kts | 64° |
| 2026-05-06 10:48 | 32.86250 | 146.97426 | 31263 ft | 554 kts | 64° |
| 2026-05-06 10:48 | 32.89517 | 147.05747 | 31256 ft | 554 kts | 64° |
| 2026-05-06 10:49 | 32.92773 | 147.14059 | 31266 ft | 554 kts | 64° |
| 2026-05-06 10:49 | 32.96022 | 147.22374 | 31256 ft | 553 kts | 64° |
| 2026-05-06 10:50 | 32.99250 | 147.30657 | 31271 ft | 554 kts | 64° |
| 2026-05-06 10:50 | 33.02494 | 147.38998 | 31266 ft | 554 kts | 64° |
| 2026-05-06 10:51 | 33.05731 | 147.47344 | 31266 ft | 555 kts | 64° |
| 2026-05-06 10:51 | 33.08967 | 147.55708 | 31269 ft | 555 kts | 64° |
| 2026-05-06 10:52 | 33.12198 | 147.64079 | 31263 ft | 555 kts | 64° |
| 2026-05-06 10:52 | 33.15409 | 147.72418 | 31278 ft | 556 kts | 64° |
| 2026-05-06 10:53 | 33.18630 | 147.80804 | 31274 ft | 556 kts | 64° |
| 2026-05-06 10:53 | 33.21854 | 147.89219 | 31272 ft | 557 kts | 64° |
| 2026-05-06 10:54 | 33.25076 | 147.97651 | 31275 ft | 558 kts | 64° |
| 2026-05-06 10:54 | 33.28300 | 148.06108 | 31274 ft | 558 kts | 64° |
| 2026-05-06 10:55 | 33.31515 | 148.14565 | 31283 ft | 559 kts | 64° |
| 2026-05-06 10:55 | 33.34737 | 148.23058 | 31279 ft | 560 kts | 64° |
| 2026-05-06 10:56 | 33.37931 | 148.31500 | 31277 ft | 561 kts | 64° |
| 2026-05-06 10:56 | 33.41144 | 148.40015 | 31283 ft | 562 kts | 64° |
| 2026-05-06 10:57 | 33.44356 | 148.48548 | 31282 ft | 562 kts | 64° |
| 2026-05-06 10:57 | 33.47565 | 148.57096 | 31290 ft | 562 kts | 64° |
| 2026-05-06 10:58 | 33.50770 | 148.65654 | 31284 ft | 562 kts | 64° |
| 2026-05-06 10:58 | 33.53951 | 148.74169 | 31287 ft | 564 kts | 64° |
| 2026-05-06 10:59 | 33.57151 | 148.82760 | 31286 ft | 564 kts | 64° |
| 2026-05-06 10:59 | 33.60351 | 148.91373 | 31291 ft | 564 kts | 64° |
| 2026-05-06 11:00 | 33.63545 | 148.99989 | 31295 ft | 565 kts | 63° |
| 2026-05-06 11:00 | 33.66733 | 149.08614 | 31295 ft | 566 kts | 63° |
| 2026-05-06 11:01 | 33.69900 | 149.17204 | 31296 ft | 566 kts | 63° |
| 2026-05-06 11:01 | 33.73104 | 149.25916 | 31295 ft | 567 kts | 63° |
| 2026-05-06 11:02 | 33.76266 | 149.34538 | 31298 ft | 567 kts | 63° |
| 2026-05-06 11:02 | 33.79450 | 149.43242 | 31299 ft | 568 kts | 63° |
| 2026-05-06 11:03 | 33.82626 | 149.51949 | 31295 ft | 567 kts | 63° |
| 2026-05-06 11:03 | 33.85789 | 149.60644 | 31292 ft | 568 kts | 63° |
| 2026-05-06 11:04 | 33.88948 | 149.69351 | 31296 ft | 568 kts | 64° |
| 2026-05-06 11:04 | 33.92084 | 149.78016 | 31297 ft | 567 kts | 64° |
| 2026-05-06 11:05 | 33.95231 | 149.86736 | 31298 ft | 567 kts | 64° |
| 2026-05-06 11:05 | 33.98372 | 149.95462 | 31300 ft | 567 kts | 63° |
| 2026-05-06 11:06 | 34.01499 | 150.04195 | 31305 ft | 567 kts | 64° |
| 2026-05-06 11:06 | 34.04585 | 150.12949 | 31305 ft | 567 kts | 64° |
| 2026-05-06 11:07 | 34.07654 | 150.21709 | 31305 ft | 567 kts | 64° |
| 2026-05-06 11:07 | 34.10708 | 150.30436 | 31310 ft | 568 kts | 64° |
| 2026-05-06 11:08 | 34.13778 | 150.39219 | 31293 ft | 568 kts | 64° |
| 2026-05-06 11:08 | 34.16841 | 150.48003 | 31315 ft | 568 kts | 64° |
| 2026-05-06 11:09 | 34.19900 | 150.56800 | 31310 ft | 568 kts | 64° |
| 2026-05-06 11:09 | 34.22949 | 150.65593 | 31307 ft | 568 kts | 64° |
| 2026-05-06 11:10 | 34.26008 | 150.74439 | 31311 ft | 569 kts | 64° |
| 2026-05-06 11:10 | 34.29053 | 150.83273 | 31320 ft | 569 kts | 64° |
| 2026-05-06 11:11 | 34.32075 | 150.92063 | 31314 ft | 569 kts | 64° |
| 2026-05-06 11:11 | 34.35109 | 151.00915 | 31327 ft | 569 kts | 64° |
| 2026-05-06 11:12 | 34.38142 | 151.09785 | 31328 ft | 571 kts | 64° |
| 2026-05-06 11:12 | 34.41172 | 151.18672 | 31315 ft | 570 kts | 64° |
| 2026-05-06 11:13 | 34.44176 | 151.27510 | 31324 ft | 571 kts | 64° |
| 2026-05-06 11:13 | 34.47194 | 151.36414 | 31322 ft | 571 kts | 64° |
| 2026-05-06 11:14 | 34.50208 | 151.45333 | 31327 ft | 571 kts | 64° |
| 2026-05-06 11:14 | 34.53220 | 151.54268 | 31328 ft | 572 kts | 64° |
| 2026-05-06 11:15 | 34.56202 | 151.63143 | 31328 ft | 572 kts | 64° |
| 2026-05-06 11:15 | 34.59199 | 151.72088 | 31328 ft | 572 kts | 64° |
| 2026-05-06 11:16 | 34.62192 | 151.81044 | 31329 ft | 572 kts | 64° |
| 2026-05-06 11:16 | 34.65179 | 151.90012 | 31331 ft | 572 kts | 64° |
| 2026-05-06 11:17 | 34.68155 | 151.98973 | 31332 ft | 572 kts | 64° |
| 2026-05-06 11:17 | 34.71111 | 152.07896 | 31336 ft | 572 kts | 64° |
| 2026-05-06 11:18 | 34.74078 | 152.16882 | 31333 ft | 572 kts | 64° |
| 2026-05-06 11:18 | 34.77037 | 152.25868 | 31337 ft | 573 kts | 64° |
| 2026-05-06 11:19 | 34.80000 | 152.34893 | 31339 ft | 573 kts | 64° |
| 2026-05-06 11:19 | 34.82934 | 152.43858 | 31339 ft | 573 kts | 65° |
| 2026-05-06 11:20 | 34.85878 | 152.52879 | 31341 ft | 573 kts | 65° |
| 2026-05-06 11:20 | 34.88341 | 152.60447 | 31344 ft | 573 kts | 65° |
| 2026-05-06 11:21 | 34.91256 | 152.69427 | 31343 ft | 573 kts | 65° |
| 2026-05-06 11:21 | 34.94186 | 152.78481 | 31343 ft | 574 kts | 65° |
| 2026-05-06 11:22 | 34.97108 | 152.87540 | 31348 ft | 574 kts | 65° |
| 2026-05-06 11:22 | 35.00026 | 152.96613 | 31342 ft | 574 kts | 65° |
| 2026-05-06 11:23 | 35.02938 | 153.05691 | 31343 ft | 574 kts | 65° |
| 2026-05-06 11:23 | 35.05823 | 153.14717 | 31348 ft | 574 kts | 65° |
| 2026-05-06 11:24 | 35.08722 | 153.23814 | 31347 ft | 574 kts | 65° |
| 2026-05-06 11:24 | 35.11606 | 153.32890 | 31351 ft | 573 kts | 65° |
| 2026-05-06 11:25 | 35.14490 | 153.41991 | 31354 ft | 574 kts | 65° |
| 2026-05-06 11:25 | 35.17362 | 153.51086 | 31357 ft | 574 kts | 65° |
| 2026-05-06 11:26 | 35.20228 | 153.60187 | 31360 ft | 573 kts | 65° |
| 2026-05-06 11:26 | 35.23072 | 153.69249 | 31360 ft | 573 kts | 65° |
| 2026-05-06 11:27 | 35.25925 | 153.78367 | 31356 ft | 574 kts | 65° |
| 2026-05-06 11:27 | 35.28774 | 153.87499 | 31353 ft | 574 kts | 65° |
| 2026-05-06 11:28 | 35.31622 | 153.96658 | 31357 ft | 575 kts | 65° |
| 2026-05-06 11:28 | 35.34459 | 154.05810 | 31355 ft | 574 kts | 65° |
| 2026-05-06 11:29 | 35.37265 | 154.14892 | 31370 ft | 574 kts | 66° |
| 2026-05-06 11:29 | 35.40089 | 154.24055 | 31372 ft | 575 kts | 66° |
| 2026-05-06 11:30 | 35.42910 | 154.33242 | 31367 ft | 576 kts | 66° |
| 2026-05-06 11:30 | 35.45723 | 154.42430 | 31360 ft | 576 kts | 66° |
| 2026-05-06 11:31 | 35.48533 | 154.51641 | 31367 ft | 576 kts | 66° |
| 2026-05-06 11:31 | 35.51337 | 154.60860 | 31390 ft | 576 kts | 66° |
| 2026-05-06 11:32 | 35.54138 | 154.70094 | 31373 ft | 577 kts | 66° |
| 2026-05-06 11:32 | 35.56913 | 154.79277 | 31378 ft | 577 kts | 66° |
| 2026-05-06 11:33 | 35.59697 | 154.88519 | 31381 ft | 577 kts | 66° |
| 2026-05-06 11:33 | 35.62479 | 154.97784 | 31380 ft | 577 kts | 66° |
| 2026-05-06 11:34 | 35.65254 | 155.07052 | 31380 ft | 578 kts | 66° |
| 2026-05-06 11:34 | 35.68025 | 155.16341 | 31381 ft | 579 kts | 66° |
| 2026-05-06 11:35 | 35.70781 | 155.25610 | 31384 ft | 579 kts | 66° |
| 2026-05-06 11:35 | 35.73543 | 155.34929 | 31382 ft | 579 kts | 66° |
| 2026-05-06 11:36 | 35.76307 | 155.44286 | 31385 ft | 580 kts | 66° |
| 2026-05-06 11:36 | 35.79041 | 155.53572 | 31384 ft | 580 kts | 66° |
| 2026-05-06 11:37 | 35.81789 | 155.62935 | 31385 ft | 581 kts | 66° |
| 2026-05-06 11:37 | 35.84533 | 155.72317 | 31386 ft | 582 kts | 66° |
| 2026-05-06 11:38 | 35.87274 | 155.81721 | 31386 ft | 582 kts | 66° |
| 2026-05-06 11:38 | 35.89987 | 155.91060 | 31376 ft | 581 kts | 66° |
| 2026-05-06 11:39 | 35.92710 | 156.00465 | 31392 ft | 581 kts | 66° |
| 2026-05-06 11:39 | 35.95425 | 156.09870 | 31387 ft | 582 kts | 66° |
| 2026-05-06 11:40 | 35.98135 | 156.19293 | 31389 ft | 582 kts | 67° |
| 2026-05-06 11:40 | 36.00836 | 156.28718 | 31390 ft | 583 kts | 67° |
| 2026-05-06 11:41 | 36.03521 | 156.38117 | 31389 ft | 583 kts | 67° |
| 2026-05-06 11:41 | 36.06216 | 156.47584 | 31388 ft | 583 kts | 67° |
| 2026-05-06 11:42 | 36.08903 | 156.57058 | 31391 ft | 584 kts | 67° |
| 2026-05-06 11:42 | 36.11572 | 156.66498 | 31391 ft | 585 kts | 67° |
| 2026-05-06 11:43 | 36.14252 | 156.76010 | 31391 ft | 585 kts | 67° |
| 2026-05-06 11:43 | 36.16921 | 156.85518 | 31394 ft | 584 kts | 67° |
| 2026-05-06 11:44 | 36.20911 | 156.99792 | 31398 ft | 585 kts | 67° |
| 2026-05-06 11:44 | 36.23545 | 157.09258 | 31401 ft | 585 kts | 67° |
| 2026-05-06 11:45 | 36.26191 | 157.18799 | 31398 ft | 585 kts | 67° |
| 2026-05-06 11:45 | 36.28827 | 157.28340 | 31401 ft | 585 kts | 67° |
| 2026-05-06 11:46 | 36.31455 | 157.37885 | 31401 ft | 585 kts | 67° |
| 2026-05-06 11:46 | 36.34076 | 157.47436 | 31401 ft | 585 kts | 67° |
| 2026-05-06 11:47 | 36.36680 | 157.56963 | 31402 ft | 586 kts | 67° |
| 2026-05-06 11:47 | 36.39291 | 157.66547 | 31402 ft | 585 kts | 67° |
| 2026-05-06 11:48 | 36.41891 | 157.76124 | 31403 ft | 586 kts | 68° |
| 2026-05-06 11:48 | 36.44485 | 157.85717 | 31400 ft | 586 kts | 68° |
| 2026-05-06 11:49 | 36.47071 | 157.95312 | 31403 ft | 586 kts | 68° |
| 2026-05-06 11:49 | 36.49652 | 158.04928 | 31404 ft | 587 kts | 68° |
| 2026-05-06 11:50 | 36.52230 | 158.14563 | 31405 ft | 588 kts | 68° |
| 2026-05-06 11:50 | 36.54792 | 158.24174 | 31404 ft | 589 kts | 68° |
| 2026-05-06 11:51 | 36.57358 | 158.33838 | 31403 ft | 589 kts | 68° |
| 2026-05-06 11:51 | 36.59920 | 158.43525 | 31404 ft | 589 kts | 68° |
| 2026-05-06 11:52 | 36.62479 | 158.53233 | 31403 ft | 589 kts | 68° |
| 2026-05-06 11:52 | 36.65026 | 158.62933 | 31404 ft | 590 kts | 68° |
| 2026-05-06 11:53 | 36.67572 | 158.72663 | 31403 ft | 591 kts | 68° |
| 2026-05-06 11:53 | 36.70109 | 158.82398 | 31404 ft | 591 kts | 68° |
| 2026-05-06 11:54 | 36.72628 | 158.92100 | 31403 ft | 592 kts | 68° |
| 2026-05-06 11:54 | 36.75157 | 159.01878 | 31405 ft | 592 kts | 68° |
| 2026-05-06 11:55 | 36.77677 | 159.11658 | 31413 ft | 593 kts | 68° |
| 2026-05-06 11:55 | 36.80193 | 159.21459 | 31398 ft | 593 kts | 68° |
| 2026-05-06 11:56 | 36.82702 | 159.31273 | 31417 ft | 594 kts | 68° |
| 2026-05-06 11:56 | 36.85203 | 159.41093 | 31411 ft | 593 kts | 68° |
| 2026-05-06 11:57 | 36.87697 | 159.50925 | 31415 ft | 594 kts | 68° |
| 2026-05-06 11:57 | 36.90188 | 159.60782 | 31411 ft | 595 kts | 68° |
| 2026-05-06 11:58 | 36.92656 | 159.70589 | 31414 ft | 595 kts | 68° |
| 2026-05-06 11:58 | 36.95136 | 159.80482 | 31420 ft | 595 kts | 68° |
| 2026-05-06 11:59 | 36.97607 | 159.90373 | 31417 ft | 595 kts | 68° |
| 2026-05-06 11:59 | 37.00327 | 160.00139 | 31421 ft | 590 kts | 61° |
| 2026-05-06 12:00 | 37.04065 | 160.09095 | 31430 ft | 581 kts | 52° |
| 2026-05-06 12:00 | 37.08206 | 160.17778 | 31422 ft | 581 kts | 52° |
| 2026-05-06 12:01 | 37.12327 | 160.26497 | 31421 ft | 581 kts | 52° |
| 2026-05-06 12:01 | 37.16404 | 160.35274 | 31426 ft | 582 kts | 52° |
| 2026-05-06 12:02 | 37.20460 | 160.44081 | 31435 ft | 582 kts | 52° |
| 2026-05-06 12:02 | 37.24482 | 160.52837 | 31428 ft | 582 kts | 52° |
| 2026-05-06 12:03 | 37.28522 | 160.61641 | 31428 ft | 582 kts | 52° |
| 2026-05-06 12:03 | 37.32566 | 160.70470 | 31422 ft | 582 kts | 52° |
| 2026-05-06 12:04 | 37.36591 | 160.79283 | 31438 ft | 581 kts | 52° |
| 2026-05-06 12:04 | 37.40613 | 160.88112 | 31429 ft | 581 kts | 52° |
| 2026-05-06 12:05 | 37.44621 | 160.96940 | 31432 ft | 580 kts | 53° |
| 2026-05-06 12:05 | 37.48615 | 161.05757 | 31434 ft | 580 kts | 53° |
| 2026-05-06 12:06 | 37.52572 | 161.14518 | 31435 ft | 579 kts | 53° |
| 2026-05-06 12:06 | 37.56545 | 161.23336 | 31433 ft | 578 kts | 53° |
| 2026-05-06 12:07 | 37.60506 | 161.32152 | 31427 ft | 577 kts | 53° |
| 2026-05-06 12:07 | 37.63797 | 161.39496 | 31430 ft | 577 kts | 54° |
| 2026-05-06 12:08 | 37.67737 | 161.48310 | 31432 ft | 576 kts | 54° |
| 2026-05-06 12:08 | 37.71667 | 161.57125 | 31428 ft | 575 kts | 54° |
| 2026-05-06 12:09 | 37.75587 | 161.65942 | 31428 ft | 574 kts | 54° |
| 2026-05-06 12:09 | 37.79468 | 161.74695 | 31429 ft | 574 kts | 55° |
| 2026-05-06 12:10 | 37.83367 | 161.83511 | 31433 ft | 573 kts | 55° |
| 2026-05-06 12:10 | 37.87252 | 161.92321 | 31433 ft | 573 kts | 55° |
| 2026-05-06 12:11 | 37.91126 | 162.01132 | 31430 ft | 572 kts | 56° |
| 2026-05-06 12:11 | 37.94989 | 162.09940 | 31434 ft | 571 kts | 56° |
| 2026-05-06 12:12 | 37.98841 | 162.18748 | 31442 ft | 571 kts | 56° |
| 2026-05-06 12:12 | 38.02690 | 162.27571 | 31438 ft | 571 kts | 56° |
| 2026-05-06 12:13 | 38.06501 | 162.36334 | 31433 ft | 570 kts | 56° |
| 2026-05-06 12:13 | 38.10328 | 162.45157 | 31426 ft | 570 kts | 56° |
| 2026-05-06 12:14 | 38.14141 | 162.53973 | 31422 ft | 568 kts | 57° |
| 2026-05-06 12:14 | 38.17939 | 162.62779 | 31447 ft | 568 kts | 57° |
| 2026-05-06 12:15 | 38.21733 | 162.71597 | 31439 ft | 569 kts | 57° |
| 2026-05-06 12:15 | 38.25495 | 162.80367 | 31435 ft | 568 kts | 57° |
| 2026-05-06 12:16 | 38.29276 | 162.89206 | 31434 ft | 568 kts | 58° |
| 2026-05-06 12:16 | 38.33045 | 162.98043 | 31435 ft | 568 kts | 58° |
| 2026-05-06 12:17 | 38.36816 | 163.06906 | 31437 ft | 569 kts | 58° |
| 2026-05-06 12:17 | 38.40582 | 163.15784 | 31433 ft | 569 kts | 58° |
| 2026-05-06 12:18 | 38.44345 | 163.24679 | 31433 ft | 570 kts | 58° |